createdAt,value
2018-07-05T00:01:52.160Z,2.50
2018-07-05T00:04:25.850Z,2.33
2018-07-05T00:07:05.483Z,2.30
2018-07-05T00:09:45.159Z,2.53
2018-07-05T00:12:24.882Z,2.20
2018-07-05T00:14:58.620Z,2.50
2018-07-05T00:17:38.429Z,2.43
2018-07-05T00:20:18.056Z,2.37
2018-07-05T00:22:57.758Z,2.10
2018-07-05T00:25:37.580Z,2.27
2018-07-05T00:28:17.257Z,2.20
2018-07-05T00:30:56.880Z,2.27
2018-07-05T00:33:36.680Z,1.87
2018-07-05T00:36:10.358Z,2.00
2018-07-05T00:38:50.074Z,1.90
2018-07-05T00:41:29.749Z,2.10
2018-07-05T00:44:09.428Z,1.80
2018-07-05T00:46:49.267Z,2.10
2018-07-05T00:49:28.911Z,2.10
2018-07-05T00:52:08.483Z,2.50
2018-07-05T00:54:48.329Z,2.17
2018-07-05T00:57:27.893Z,2.27
2018-07-05T01:00:07.630Z,2.20
2018-07-05T01:02:47.322Z,2.23
2018-07-05T01:05:26.945Z,2.13
2018-07-05T01:08:06.666Z,2.20
2018-07-05T01:10:46.462Z,2.20
2018-07-05T01:13:26.123Z,2.30
2018-07-05T01:16:05.834Z,2.73
2018-07-05T01:18:45.325Z,2.50
2018-07-05T01:21:18.935Z,2.53
2018-07-05T01:23:52.594Z,2.37
2018-07-05T01:26:32.429Z,2.10
2018-07-05T01:29:12.162Z,2.43
2018-07-05T01:31:51.917Z,2.40
2018-07-05T01:34:31.740Z,2.90
2018-07-05T01:37:11.433Z,2.70
2018-07-05T01:39:50.981Z,2.23
2018-07-05T01:42:30.685Z,1.73
2018-07-05T01:45:10.391Z,1.10
2018-07-05T01:47:50.158Z,1.30
2018-07-05T01:50:29.923Z,1.20
2018-07-05T01:53:09.631Z,1.23
2018-07-05T01:55:49.401Z,1.23
2018-07-05T01:58:28.966Z,1.00
2018-07-05T02:01:08.633Z,1.13
2018-07-05T02:03:48.290Z,1.17
2018-07-05T02:06:28.056Z,1.30
2018-07-05T02:09:07.625Z,1.30
2018-07-05T02:11:47.354Z,1.20
2018-07-05T02:14:26.893Z,1.70
2018-07-05T02:17:06.661Z,1.70
2018-07-05T02:19:46.328Z,1.40
2018-07-05T02:22:25.870Z,1.70
2018-07-05T02:25:05.413Z,1.70
2018-07-05T02:27:44.983Z,1.70
2018-07-05T02:30:24.699Z,1.70
2018-07-05T02:33:04.553Z,1.50
2018-07-05T02:35:44.349Z,1.70
2018-07-05T02:38:24.842Z,1.43
2018-07-05T02:41:05.381Z,1.70
2018-07-05T02:43:38.903Z,1.80
2018-07-05T02:46:18.568Z,1.80
2018-07-05T02:48:58.346Z,1.70
2018-07-05T02:51:38.111Z,1.40
2018-07-05T02:54:18.084Z,1.90
2018-07-05T02:56:57.982Z,1.57
2018-07-05T02:59:37.882Z,1.67
2018-07-05T03:02:18.022Z,1.90
2018-07-05T03:04:57.742Z,1.73
2018-07-05T03:07:37.400Z,2.40
2018-07-05T03:10:17.049Z,2.47
2018-07-05T03:12:56.788Z,1.93
2018-07-05T03:15:36.314Z,2.10
2018-07-05T03:18:15.975Z,2.40
2018-07-05T03:20:55.690Z,2.37
2018-07-05T03:23:29.408Z,2.50
2018-07-05T03:26:09.307Z,2.47
2018-07-05T03:28:48.966Z,2.30
2018-07-05T03:31:28.463Z,2.50
2018-07-05T03:34:08.090Z,2.47
2018-07-05T03:36:47.798Z,2.60
2018-07-05T03:39:27.423Z,2.50
2018-07-05T03:42:08.084Z,2.50
2018-07-05T03:44:47.785Z,2.47
2018-07-05T03:47:27.421Z,2.20
2018-07-05T03:50:07.183Z,2.37
2018-07-05T03:52:46.903Z,2.30
2018-07-05T03:55:26.676Z,2.30
2018-07-05T03:58:06.315Z,2.30
2018-07-05T04:00:46.027Z,2.40
2018-07-05T04:03:25.720Z,2.70
2018-07-05T04:05:59.253Z,2.60
2018-07-05T04:08:38.977Z,3.23
2018-07-05T04:11:12.577Z,3.30
2018-07-05T04:13:46.263Z,3.67
2018-07-05T04:16:25.975Z,3.20
2018-07-05T04:19:05.568Z,3.17
2018-07-05T04:21:45.193Z,2.63
2018-07-05T04:24:19.039Z,2.47
2018-07-05T04:26:58.997Z,2.20
2018-07-05T04:29:38.736Z,2.37
2018-07-05T04:32:18.357Z,1.97
2018-07-05T04:34:57.950Z,2.73
2018-07-05T04:37:37.809Z,3.00
2018-07-05T04:40:11.524Z,2.37
2018-07-05T04:42:45.329Z,2.60
2018-07-05T04:45:18.963Z,2.70
2018-07-05T04:47:58.852Z,2.93
2018-07-05T04:50:38.399Z,3.20
2018-07-05T04:53:18.059Z,3.13
2018-07-05T04:55:57.580Z,2.83
2018-07-05T04:58:31.310Z,2.60
2018-07-05T05:01:11.074Z,2.83
2018-07-05T05:03:50.726Z,3.00
2018-07-05T05:06:30.292Z,3.20
2018-07-05T05:09:10.048Z,2.90
2018-07-05T05:11:49.848Z,2.80
2018-07-05T05:14:29.544Z,2.63
2018-07-05T05:17:09.176Z,2.60
2018-07-05T05:19:42.850Z,2.80
2018-07-05T05:22:22.683Z,2.77
2018-07-05T05:25:02.498Z,2.90
2018-07-05T05:27:42.108Z,3.00
2018-07-05T05:30:21.656Z,2.73
2018-07-05T05:33:01.313Z,2.77
2018-07-05T05:35:40.898Z,2.87
2018-07-05T05:38:20.614Z,2.80
2018-07-05T05:41:00.176Z,3.13
2018-07-05T05:43:39.888Z,2.70
2018-07-05T05:46:19.637Z,2.53
2018-07-05T05:48:59.373Z,2.67
2018-07-05T05:51:38.934Z,2.73
2018-07-05T05:54:18.543Z,3.00
2018-07-05T05:56:58.293Z,2.50
2018-07-05T05:59:37.813Z,2.53
2018-07-05T06:02:17.507Z,2.60
2018-07-05T06:04:57.280Z,2.43
2018-07-05T06:07:30.825Z,2.70
2018-07-05T06:10:10.704Z,2.50
2018-07-05T06:12:50.389Z,2.37
2018-07-05T06:15:30.080Z,2.00
2018-07-05T06:18:09.776Z,2.30
2018-07-05T06:20:49.417Z,2.60
2018-07-05T06:23:29.073Z,2.37
2018-07-05T06:26:08.782Z,2.30
2018-07-05T06:28:48.431Z,3.07
2018-07-05T06:31:28.092Z,2.83
2018-07-05T06:34:07.670Z,2.90
2018-07-05T06:36:47.304Z,3.13
2018-07-05T06:39:27.169Z,2.87
2018-07-05T06:42:06.834Z,2.30
2018-07-05T06:44:46.630Z,2.87
2018-07-05T06:47:26.249Z,2.37
2018-07-05T06:50:06.025Z,2.47
2018-07-05T06:52:45.785Z,2.50
2018-07-05T06:55:25.436Z,2.80
2018-07-05T06:58:05.108Z,2.60
2018-07-05T07:00:44.758Z,2.60
2018-07-05T07:03:24.370Z,2.60
2018-07-05T07:06:04.002Z,2.60
2018-07-05T07:08:43.695Z,2.60
2018-07-05T07:11:23.360Z,2.63
2018-07-05T07:14:03.009Z,2.57
2018-07-05T07:16:42.585Z,2.60
2018-07-05T07:19:22.185Z,2.67
2018-07-05T07:21:55.856Z,2.60
2018-07-05T07:24:35.344Z,3.27
2018-07-05T07:27:15.145Z,3.00
2018-07-05T07:29:54.806Z,3.07
2018-07-05T07:32:34.371Z,3.03
2018-07-05T07:35:13.899Z,3.20
2018-07-05T07:37:53.512Z,3.13
2018-07-05T07:40:33.222Z,2.93
2018-07-05T07:43:00.574Z,2.83
2018-07-05T07:45:27.975Z,3.03
2018-07-05T07:47:55.291Z,3.37
2018-07-05T07:50:22.616Z,3.13
2018-07-05T07:52:49.995Z,2.90
2018-07-05T07:55:17.349Z,2.60
2018-07-05T07:57:44.686Z,2.53
2018-07-05T08:00:12.038Z,3.00
2018-07-05T08:02:39.638Z,3.10
2018-07-05T08:05:06.972Z,3.13
2018-07-05T08:07:34.549Z,3.10
2018-07-05T08:10:01.871Z,2.80
2018-07-05T08:12:29.219Z,2.83
2018-07-05T08:14:56.660Z,2.60
2018-07-05T08:17:23.974Z,2.97
2018-07-05T08:19:51.578Z,3.17
2018-07-05T08:22:18.938Z,2.60
2018-07-05T08:24:46.278Z,2.50
2018-07-05T08:27:13.650Z,2.87
2018-07-05T08:29:41.035Z,2.70
2018-07-05T08:32:08.586Z,2.40
2018-07-05T08:34:35.926Z,2.63
2018-07-05T08:37:03.304Z,2.60
2018-07-05T08:39:30.650Z,2.40
2018-07-05T08:41:57.978Z,2.40
2018-07-05T08:44:25.615Z,2.80
2018-07-05T08:46:52.972Z,2.73
2018-07-05T08:49:20.327Z,2.77
2018-07-05T08:51:47.693Z,3.00
2018-07-05T08:54:15.131Z,2.80
2018-07-05T08:56:42.491Z,3.03
2018-07-05T08:59:09.849Z,2.73
2018-07-05T09:01:37.209Z,2.33
2018-07-05T09:04:04.557Z,2.80
2018-07-05T09:06:31.882Z,2.90
2018-07-05T09:08:59.475Z,2.50
2018-07-05T09:11:26.808Z,2.50
2018-07-05T09:13:54.126Z,2.63
2018-07-05T09:16:21.511Z,2.30
2018-07-05T09:18:48.848Z,2.33
2018-07-05T09:21:16.239Z,2.57
2018-07-05T09:23:43.663Z,2.30
2018-07-05T09:26:10.993Z,2.50
2018-07-05T09:28:38.354Z,2.20
2018-07-05T09:31:05.735Z,2.10
2018-07-05T09:33:33.071Z,2.20
2018-07-05T09:36:00.511Z,2.20
2018-07-05T09:38:28.137Z,2.10
2018-07-05T09:40:55.515Z,2.57
2018-07-05T09:43:22.893Z,2.00
2018-07-05T09:45:50.279Z,2.33
2018-07-05T09:48:17.619Z,2.23
2018-07-05T09:50:45.276Z,2.50
2018-07-05T09:53:12.612Z,2.53
2018-07-05T09:55:39.951Z,3.50
2018-07-05T09:58:07.361Z,3.53
2018-07-05T10:00:39.948Z,3.47
2018-07-05T10:03:07.543Z,3.60
2018-07-05T10:05:34.863Z,4.03
2018-07-05T10:08:02.452Z,4.00
2018-07-05T10:10:29.834Z,4.10
2018-07-05T10:12:57.202Z,3.67
2018-07-05T10:15:24.501Z,4.13
2018-07-05T10:17:51.868Z,3.47
2018-07-05T10:20:19.190Z,4.30
2018-07-05T10:22:46.541Z,4.23
2018-07-05T10:25:13.920Z,4.20
2018-07-05T10:27:41.284Z,3.90
2018-07-05T10:30:21.221Z,3.83
2018-07-05T10:33:01.072Z,4.03
2018-07-05T10:35:28.437Z,4.33
2018-07-05T10:37:59.815Z,3.97
2018-07-05T10:40:41.015Z,4.23
2018-07-05T10:43:20.660Z,4.10
2018-07-05T10:46:00.679Z,4.00
2018-07-05T10:48:34.369Z,3.97
2018-07-05T10:51:14.120Z,4.00
2018-07-05T10:53:53.824Z,3.70
2018-07-05T10:56:33.579Z,3.93
2018-07-05T10:59:13.389Z,3.00
2018-07-05T11:01:53.207Z,3.37
2018-07-05T11:04:33.004Z,3.53
2018-07-05T11:07:12.846Z,3.43
2018-07-05T11:09:52.465Z,3.20
2018-07-05T11:12:32.080Z,2.40
2018-07-05T11:15:11.810Z,2.20
2018-07-05T11:17:45.518Z,2.47
2018-07-05T11:20:25.207Z,2.40
2018-07-05T11:23:04.898Z,2.30
2018-07-05T11:25:44.700Z,2.40
2018-07-05T11:28:24.650Z,2.90
2018-07-05T11:31:04.414Z,2.80
2018-07-05T11:33:43.941Z,2.43
2018-07-05T11:36:23.738Z,2.00
2018-07-05T11:39:04.884Z,2.23
2018-07-05T11:41:38.632Z,1.83
2018-07-05T11:44:18.290Z,1.90
2018-07-05T11:46:58.050Z,2.30
2018-07-05T11:49:37.764Z,1.90
2018-07-05T11:52:17.583Z,2.30
2018-07-05T11:54:57.317Z,2.37
2018-07-05T11:57:37.078Z,2.87
2018-07-05T12:00:16.714Z,2.50
2018-07-05T12:02:56.551Z,2.70
2018-07-05T12:05:36.446Z,2.60
2018-07-05T12:08:16.222Z,3.63
2018-07-05T12:10:55.839Z,3.83
2018-07-05T12:13:35.417Z,4.23
2018-07-05T12:16:15.121Z,4.47
2018-07-05T12:18:54.772Z,4.00
2018-07-05T12:21:28.459Z,3.90
2018-07-05T12:24:08.221Z,3.53
2018-07-05T12:26:47.915Z,3.83
2018-07-05T12:29:27.748Z,3.27
2018-07-05T12:32:01.405Z,3.10
2018-07-05T12:34:41.146Z,2.70
2018-07-05T12:37:20.810Z,2.50
2018-07-05T12:40:00.340Z,3.10
2018-07-05T12:42:39.879Z,3.43
2018-07-05T12:45:19.446Z,3.17
2018-07-05T12:47:59.107Z,3.97
2018-07-05T12:50:38.622Z,4.13
2018-07-05T12:53:18.321Z,4.30
2018-07-05T12:55:58.001Z,4.23
2018-07-05T12:58:37.735Z,3.97
2018-07-05T13:01:17.580Z,3.57
2018-07-05T13:03:57.372Z,3.33
2018-07-05T13:06:37.261Z,4.20
2018-07-05T13:09:16.889Z,3.93
2018-07-05T13:11:50.547Z,4.00
2018-07-05T13:14:30.196Z,3.20
2018-07-05T13:17:09.817Z,3.60
2018-07-05T13:19:49.417Z,4.87
2018-07-05T13:22:29.054Z,3.70
2018-07-05T13:25:08.724Z,5.37
2018-07-05T13:27:48.275Z,4.80
2018-07-05T13:30:27.877Z,3.97
2018-07-05T13:33:01.534Z,4.10
2018-07-05T13:35:41.463Z,4.63
2018-07-05T13:38:21.042Z,4.73
2018-07-05T13:41:00.844Z,5.67
2018-07-05T13:43:40.472Z,3.70
2018-07-05T13:46:20.013Z,4.70
2018-07-05T13:48:59.840Z,4.27
2018-07-05T13:51:39.497Z,2.73
2018-07-05T13:54:19.124Z,2.67
2018-07-05T13:56:58.751Z,2.47
2018-07-05T13:59:32.481Z,2.17
2018-07-05T14:02:12.153Z,2.20
2018-07-05T14:04:51.773Z,2.20
2018-07-05T14:07:31.451Z,2.20
2018-07-05T14:10:11.163Z,2.27
2018-07-05T14:12:50.985Z,2.10
2018-07-05T14:15:30.801Z,2.70
2018-07-05T14:18:04.339Z,2.20
2018-07-05T14:20:44.098Z,1.80
2018-07-05T14:23:23.783Z,1.80
2018-07-05T14:25:57.472Z,2.20
2018-07-05T14:28:37.214Z,2.13
2018-07-05T14:31:17.070Z,2.57
2018-07-05T14:33:56.820Z,2.70
2018-07-05T14:36:36.394Z,2.27
2018-07-05T14:39:16.016Z,2.50
2018-07-05T14:41:55.648Z,2.67
2018-07-05T14:44:29.256Z,2.10
2018-07-05T14:47:08.930Z,2.13
2018-07-05T14:49:48.592Z,2.40
2018-07-05T14:52:28.137Z,1.97
2018-07-05T14:55:07.838Z,1.87
2018-07-05T14:57:47.573Z,2.17
2018-07-05T15:00:27.249Z,2.50
2018-07-05T15:03:06.940Z,2.40
2018-07-05T15:05:46.455Z,2.40
2018-07-05T15:08:19.992Z,2.47
2018-07-05T15:10:59.666Z,2.47
2018-07-05T15:13:39.393Z,2.27
2018-07-05T15:16:19.184Z,2.50
2018-07-05T15:18:59.251Z,2.30
2018-07-05T15:21:38.881Z,2.07
2018-07-05T15:24:18.653Z,2.20
2018-07-05T15:26:58.268Z,1.80
2018-07-05T15:29:38.030Z,2.37
2018-07-05T15:32:17.649Z,2.10
2018-07-05T15:34:57.293Z,2.10
2018-07-05T15:37:37.071Z,2.10
2018-07-05T15:40:16.632Z,2.10
2018-07-05T15:42:56.397Z,2.30
2018-07-05T15:45:36.062Z,2.43
2018-07-05T15:48:15.747Z,2.10
2018-07-05T15:50:55.465Z,1.60
2018-07-05T15:53:35.239Z,1.63
2018-07-05T15:56:15.034Z,1.87
2018-07-05T15:58:54.791Z,2.83
2018-07-05T16:01:34.508Z,2.80
2018-07-05T16:04:14.158Z,2.40
2018-07-05T16:06:53.776Z,2.43
2018-07-05T16:09:27.439Z,2.50
2018-07-05T16:12:07.124Z,2.63
2018-07-05T16:14:40.727Z,2.23
2018-07-05T16:17:14.443Z,2.03
2018-07-05T16:19:54.244Z,2.30
2018-07-05T16:22:33.924Z,2.20
2018-07-05T16:25:13.720Z,1.63
2018-07-05T16:27:53.356Z,2.20
2018-07-05T16:30:33.066Z,2.20
2018-07-05T16:33:12.740Z,2.13
2018-07-05T16:35:52.546Z,2.10
2018-07-05T16:38:32.400Z,2.30
2018-07-05T16:41:12.081Z,2.37
2018-07-05T16:43:51.739Z,1.83
2018-07-05T16:46:31.405Z,2.03
2018-07-05T16:49:11.046Z,2.40
2018-07-05T16:51:50.641Z,2.50
2018-07-05T16:54:30.323Z,2.27
2018-07-05T16:57:10.087Z,2.60
2018-07-05T16:59:49.658Z,2.90
2018-07-05T17:02:29.481Z,3.07
2018-07-05T17:05:09.208Z,2.40
2018-07-05T17:07:48.890Z,2.47
2018-07-05T17:10:28.562Z,2.40
2018-07-05T17:13:02.177Z,1.93
2018-07-05T17:15:41.956Z,2.20
2018-07-05T17:18:21.619Z,2.50
2018-07-05T17:21:01.467Z,2.07
2018-07-05T17:23:41.216Z,2.30
2018-07-05T17:26:21.090Z,2.43
2018-07-05T17:29:00.782Z,2.30
2018-07-05T17:31:40.573Z,2.53
2018-07-05T17:34:14.262Z,2.63
2018-07-05T17:36:47.926Z,2.70
2018-07-05T17:39:27.686Z,2.40
2018-07-05T17:42:07.297Z,2.80
2018-07-05T17:44:46.876Z,2.83
2018-07-05T17:47:26.445Z,3.20
2018-07-05T17:50:06.132Z,2.90
2018-07-05T17:52:45.828Z,2.80
2018-07-05T17:55:25.565Z,2.90
2018-07-05T17:58:05.291Z,2.77
2018-07-05T18:00:39.042Z,2.70
2018-07-05T18:03:18.907Z,2.60
2018-07-05T18:05:58.713Z,3.30
2018-07-05T18:08:38.451Z,3.40
2018-07-05T18:11:18.064Z,3.60
2018-07-05T18:13:51.643Z,3.87
2018-07-05T18:16:31.384Z,3.80
2018-07-05T18:19:11.134Z,2.87
2018-07-05T18:21:50.718Z,2.70
2018-07-05T18:24:30.424Z,2.53
2018-07-05T18:27:10.124Z,2.57
2018-07-05T18:29:49.973Z,2.97
2018-07-05T18:32:29.736Z,2.97
2018-07-05T18:35:09.384Z,2.93
2018-07-05T18:37:49.142Z,3.47
2018-07-05T18:40:28.854Z,3.53
2018-07-05T18:43:08.628Z,3.60
2018-07-05T18:45:42.376Z,3.37
2018-07-05T18:48:22.216Z,3.10
2018-07-05T18:51:01.954Z,2.87
2018-07-05T18:53:41.732Z,3.30
2018-07-05T18:56:21.560Z,2.70
2018-07-05T18:59:01.367Z,2.50
2018-07-05T19:01:41.150Z,2.60
2018-07-05T19:04:20.904Z,3.00
2018-07-05T19:07:00.655Z,3.10
2018-07-05T19:09:40.523Z,3.53
2018-07-05T19:12:20.240Z,3.70
2018-07-05T19:14:59.979Z,3.77
2018-07-05T19:17:39.769Z,3.20
2018-07-05T19:20:13.455Z,2.40
2018-07-05T19:22:53.111Z,3.00
2018-07-05T19:25:26.709Z,2.70
2018-07-05T19:28:06.455Z,2.40
2018-07-05T19:30:40.130Z,2.50
2018-07-05T19:33:20.022Z,2.70
2018-07-05T19:35:59.435Z,2.60
2018-07-05T19:38:33.104Z,3.00
2018-07-05T19:41:12.828Z,3.33
2018-07-05T19:43:52.402Z,3.60
2018-07-05T19:46:32.038Z,3.33
2018-07-05T19:49:11.616Z,3.60
2018-07-05T19:51:51.411Z,3.53
2018-07-05T19:54:31.024Z,2.83
2018-07-05T19:57:10.742Z,3.00
2018-07-05T19:59:50.634Z,2.83
2018-07-05T20:02:30.334Z,3.30
2018-07-05T20:05:09.905Z,3.30
2018-07-05T20:07:49.548Z,2.23
2018-07-05T20:10:29.251Z,2.30
2018-07-05T20:13:09.013Z,2.53
2018-07-05T20:15:48.655Z,2.30
2018-07-05T20:18:28.307Z,2.60
2018-07-05T20:21:07.848Z,2.40
2018-07-05T20:23:47.529Z,3.17
2018-07-05T20:26:21.130Z,2.50
2018-07-05T20:29:00.790Z,2.37
2018-07-05T20:31:40.471Z,2.60
2018-07-05T20:34:20.170Z,2.87
2018-07-05T20:36:59.828Z,4.67
2018-07-05T20:39:39.467Z,4.60
2018-07-05T20:42:19.227Z,3.40
2018-07-05T20:44:58.898Z,2.53
2018-07-05T20:47:38.675Z,2.53
2018-07-05T20:50:12.244Z,2.80
2018-07-05T20:52:52.031Z,2.60
2018-07-05T20:55:31.911Z,2.80
2018-07-05T20:58:11.601Z,3.20
2018-07-05T21:00:51.229Z,2.93
2018-07-05T21:03:24.893Z,3.00
2018-07-05T21:06:04.623Z,3.27
2018-07-05T21:08:44.434Z,3.50
2018-07-05T21:11:24.139Z,3.27
2018-07-05T21:14:03.747Z,3.70
2018-07-05T21:16:43.493Z,3.60
2018-07-05T21:19:23.171Z,3.70
2018-07-05T21:22:02.749Z,4.23
2018-07-05T21:24:42.539Z,3.60
2018-07-05T21:27:22.245Z,3.83
2018-07-05T21:30:02.025Z,3.77
2018-07-05T21:32:41.549Z,2.87
2018-07-05T21:35:21.348Z,3.07
2018-07-05T21:38:00.972Z,3.10
2018-07-05T21:40:34.548Z,3.10
2018-07-05T21:43:14.124Z,2.27
2018-07-05T21:45:53.872Z,2.23
2018-07-05T21:48:33.506Z,2.70
2018-07-05T21:51:13.117Z,3.20
2018-07-05T21:53:52.744Z,2.90
2018-07-05T21:56:32.383Z,3.63
2018-07-05T21:59:11.880Z,3.43
2018-07-05T22:01:51.589Z,2.50
2018-07-05T22:04:31.242Z,2.43
2018-07-05T22:07:10.983Z,2.30
2018-07-05T22:09:50.636Z,2.50
2018-07-05T22:12:30.457Z,2.37
2018-07-05T22:15:04.177Z,2.20
2018-07-05T22:17:49.337Z,2.07
2018-07-05T22:20:28.300Z,2.43
2018-07-05T22:23:13.285Z,2.73
2018-07-05T22:25:58.459Z,2.73
2018-07-05T22:28:43.512Z,3.10
2018-07-05T22:31:28.546Z,2.93
2018-07-05T22:34:08.202Z,2.80
2018-07-05T22:36:47.805Z,3.30
2018-07-05T22:39:27.444Z,3.20
2018-07-05T22:42:07.284Z,3.00
2018-07-05T22:44:40.901Z,3.40
2018-07-05T22:47:20.560Z,2.30
2018-07-05T22:50:00.217Z,2.97
2018-07-05T22:52:40.001Z,3.80
2018-07-05T22:55:13.619Z,3.30
2018-07-05T22:57:53.265Z,3.33
2018-07-05T23:00:32.996Z,2.83
2018-07-05T23:03:12.791Z,3.57
2018-07-05T23:05:52.555Z,3.40
2018-07-05T23:08:32.514Z,3.27
2018-07-05T23:11:06.261Z,2.27
2018-07-05T23:13:46.119Z,2.47
2018-07-05T23:16:25.672Z,3.00
2018-07-05T23:19:05.404Z,2.67
2018-07-05T23:21:45.126Z,3.60
2018-07-05T23:24:24.922Z,3.20
2018-07-05T23:27:04.697Z,3.37
2018-07-05T23:29:38.336Z,3.00
2018-07-05T23:32:17.996Z,2.83
2018-07-05T23:34:57.668Z,2.80
2018-07-05T23:37:31.242Z,2.90
2018-07-05T23:40:10.916Z,3.20
2018-07-05T23:42:50.434Z,2.50
2018-07-05T23:45:30.103Z,2.13
2018-07-05T23:48:09.828Z,2.40
2018-07-05T23:50:49.486Z,2.20
2018-07-05T23:53:29.256Z,2.70
2018-07-05T23:56:08.849Z,2.67
2018-07-05T23:58:42.654Z,2.90
